Time;durP1;ratioP1;P1;durP2;ratioP2;P2;SDS_P1;SDS_P2;PMS_P1;PMS_P2;Temp;Humidity;BMP_temperature;BMP_pressure;BME280_temperature;BME280_humidity;BME280_pressure;Samples;Min_cycle;Max_cycle;Signal;HPM_P1;HPM_P2
2021/01/13 00:01:39;;;;;;;7.70;1.30;;;;;;;25.18;37.28;98272.06;4971428;28;20210;-61
2021/01/13 00:04:06;;;;;;;3.42;0.73;;;;;;;25.17;37.05;98278.41;4975174;28;20280;-60
2021/01/13 00:06:33;;;;;;;3.20;0.90;;;;;;;25.14;37.91;98283.31;4973015;28;20206;-62
2021/01/13 00:09:00;;;;;;;3.00;0.95;;;;;;;25.11;37.10;98280.00;4975028;28;20226;-59
2021/01/13 00:11:26;;;;;;;2.38;0.65;;;;;;;25.10;37.28;98275.63;4974339;28;20230;-62
2021/01/13 00:13:52;;;;;;;2.22;0.70;;;;;;;25.06;37.04;98282.38;4973740;28;20206;-62
2021/01/13 00:16:20;;;;;;;3.22;0.60;;;;;;;25.03;37.67;98282.72;4974311;28;20293;-61
2021/01/13 00:18:48;;;;;;;1.77;0.77;;;;;;;25.08;37.44;98275.00;4973417;28;20233;-62
2021/01/13 00:21:15;;;;;;;3.53;0.70;;;;;;;25.08;37.32;98284.84;4974713;28;20208;-62
2021/01/13 00:23:45;;;;;;;2.40;0.70;;;;;;;25.07;37.07;98284.03;4973633;28;20581;-62
2021/01/13 00:26:18;;;;;;;1.83;0.60;;;;;;;25.07;37.81;98281.34;4974519;28;20209;-61
2021/01/13 00:28:44;;;;;;;2.13;0.60;;;;;;;25.09;36.71;98281.16;4972920;28;20229;-58
2021/01/13 00:31:12;;;;;;;2.08;0.68;;;;;;;25.00;37.01;98276.91;4972895;28;20226;-61
2021/01/13 00:33:39;;;;;;;1.73;0.90;;;;;;;25.03;37.20;98277.38;4974385;28;20210;-62
2021/01/13 00:36:06;;;;;;;3.58;0.85;;;;;;;25.01;37.40;98278.56;4973454;28;20292;-61
2021/01/13 00:38:32;;;;;;;1.48;0.63;;;;;;;24.89;37.20;98287.00;4974223;28;20237;-61
2021/01/13 00:40:58;;;;;;;4.25;0.80;;;;;;;24.91;37.27;98290.38;4974440;28;20199;-61
2021/01/13 00:43:24;;;;;;;1.90;0.70;;;;;;;24.96;37.41;98291.66;4973017;28;20324;-61
2021/01/13 00:45:51;;;;;;;0.73;0.70;;;;;;;24.87;37.51;98297.06;4973873;28;20198;-62
2021/01/13 00:48:18;;;;;;;0.93;0.50;;;;;;;24.86;37.57;98300.75;4974016;28;20205;-62
2021/01/13 00:50:44;;;;;;;3.63;0.63;;;;;;;24.85;37.12;98301.75;4971769;28;20554;-61
2021/01/13 00:53:11;;;;;;;1.73;0.60;;;;;;;24.82;38.18;98309.31;4973629;28;20205;-62
2021/01/13 00:55:37;;;;;;;1.65;0.70;;;;;;;24.78;37.69;98305.31;4972589;28;20297;-62
2021/01/13 00:58:03;;;;;;;1.20;0.52;;;;;;;24.78;38.29;98305.31;4972762;28;20217;-61
2021/01/13 01:00:29;;;;;;;2.72;0.70;;;;;;;24.77;37.11;98311.69;4971473;28;20569;-61
2021/01/13 01:02:55;;;;;;;1.23;0.50;;;;;;;24.71;37.42;98314.06;4971823;28;20214;-62
2021/01/13 01:05:21;;;;;;;4.80;0.63;;;;;;;24.70;38.26;98317.75;4971382;28;20252;-61
2021/01/13 01:07:48;;;;;;;2.55;0.82;;;;;;;24.78;37.30;98305.31;4971960;28;20578;-62
2021/01/13 01:10:19;;;;;;;3.33;0.50;;;;;;;24.84;37.06;98308.13;4972329;28;20240;-61
2021/01/13 01:12:46;;;;;;;1.23;0.43;;;;;;;24.85;37.08;98317.81;4974793;28;20278;-61
2021/01/13 01:15:13;;;;;;;2.85;0.70;;;;;;;24.89;37.89;98312.94;4972449;28;20216;-62
2021/01/13 01:17:39;;;;;;;1.95;0.50;;;;;;;24.88;37.63;98321.94;4973573;28;20619;-62
2021/01/13 01:20:07;;;;;;;1.48;0.70;;;;;;;24.90;37.41;98323.44;4973504;28;20621;-61
2021/01/13 01:22:33;;;;;;;1.08;0.60;;;;;;;24.92;37.77;98317.94;4972640;28;20206;-61
2021/01/13 01:25:00;;;;;;;2.58;0.60;;;;;;;24.91;36.94;98332.28;4972581;28;20214;-62
2021/01/13 01:27:26;;;;;;;1.85;0.60;;;;;;;24.89;37.83;98329.78;4973773;28;20220;-62
2021/01/13 01:29:52;;;;;;;2.03;0.77;;;;;;;24.87;36.92;98337.19;4972631;28;20230;-61
2021/01/13 01:32:18;;;;;;;0.63;0.40;;;;;;;24.91;37.27;98329.63;4972400;28;20268;-61
2021/01/13 01:34:44;;;;;;;1.80;0.50;;;;;;;24.89;37.39;98345.03;4972166;28;20230;-61
2021/01/13 01:37:10;;;;;;;2.50;0.52;;;;;;;24.83;37.32;98337.69;4973153;28;20231;-61
2021/01/13 01:39:36;;;;;;;1.65;0.50;;;;;;;24.78;37.95;98342.75;4971742;28;20254;-62
2021/01/13 01:42:03;;;;;;;1.40;0.60;;;;;;;24.83;37.91;98343.03;4972689;28;20226;-61
2021/01/13 01:44:30;;;;;;;0.75;0.50;;;;;;;24.91;37.80;98349.19;4973498;28;20292;-61
2021/01/13 01:47:03;;;;;;;1.80;0.50;;;;;;;24.86;37.40;98348.03;4971921;28;20542;-57
2021/01/13 01:49:31;;;;;;;1.42;0.75;;;;;;;24.88;37.27;98359.38;4973880;28;20576;-62
2021/01/13 01:52:06;;;;;;;1.33;0.50;;;;;;;24.94;36.75;98361.34;4970809;28;20262;-61
2021/01/13 01:54:35;;;;;;;1.30;0.50;;;;;;;24.89;36.87;98359.22;4974200;28;20642;-61
2021/01/13 01:57:04;;;;;;;1.63;0.75;;;;;;;24.91;37.86;98364.38;4971156;28;20578;-61
2021/01/13 01:59:48;;;;;;;1.75;0.40;;;;;;;24.94;36.65;98369.38;4972597;28;20226;-61
2021/01/13 02:02:17;;;;;;;3.00;0.68;;;;;;;25.00;37.59;98366.00;4972747;28;20260;-61
2021/01/13 02:04:45;;;;;;;2.08;0.60;;;;;;;25.00;37.16;98362.50;4972262;28;20222;-61
2021/01/13 02:07:29;;;;;;;3.17;0.40;;;;;;;25.00;36.50;98366.00;4972747;28;20210;-61
2021/01/13 02:09:56;;;;;;;1.38;0.60;;;;;;;25.01;36.78;98364.97;4971947;28;20284;-62
2021/01/13 02:12:31;;;;;;;1.50;0.55;;;;;;;24.99;36.71;98356.31;4972399;28;20300;-62
2021/01/13 02:14:59;;;;;;;2.05;0.70;;;;;;;25.02;36.79;98361.31;4971477;28;20214;-61
2021/01/13 02:17:36;;;;;;;1.17;0.50;;;;;;;25.00;36.94;98362.50;4973023;28;20206;-62
2021/01/13 02:20:16;;;;;;;1.83;0.80;;;;;;;24.94;37.64;98364.84;4972237;28;20232;-61
2021/01/13 02:23:09;;;;;;;2.63;0.60;;;;;;;24.92;36.53;98371.41;4971560;28;20293;-62
2021/01/13 02:26:16;;;;;;;0.85;0.60;;;;;;;24.99;37.54;98372.34;4971036;28;20216;-62
2021/01/13 02:29:03;;;;;;;3.35;0.70;;;;;;;24.96;36.89;98372.69;4972300;28;20226;-61
2021/01/13 02:31:39;;;;;;;1.40;0.60;;;;;;;24.97;37.01;98370.88;4973242;28;20325;-61
2021/01/13 02:34:52;;;;;;;0.60;0.40;;;;;;;24.90;37.59;98373.44;4973817;28;20209;-61
2021/01/13 02:37:41;;;;;;;1.00;0.47;;;;;;;24.85;36.94;98365.94;4937123;28;20637;-61
2021/01/13 02:40:14;;;;;;;2.08;0.60;;;;;;;24.85;36.98;98371.28;4972137;28;20230;-62
2021/01/13 02:42:49;;;;;;;1.00;0.50;;;;;;;24.84;36.80;98371.47;4971958;28;20201;-62
2021/01/13 02:45:18;;;;;;;0.88;0.40;;;;;;;24.84;37.62;98369.63;4972389;28;20201;-59
2021/01/13 02:48:04;;;;;;;2.38;0.57;;;;;;;24.81;37.58;98372.63;4971965;28;20206;-61
2021/01/13 02:50:32;;;;;;;1.45;0.40;;;;;;;24.84;36.60;98384.84;4971615;28;20257;-62
2021/01/13 02:53:48;;;;;;;1.30;0.50;;;;;;;24.71;37.51;98375.56;4971186;28;20206;-62
2021/01/13 02:56:33;;;;;;;1.67;0.47;;;;;;;24.72;37.83;98377.22;4972136;28;20206;-62
2021/01/13 02:59:06;;;;;;;2.13;0.45;;;;;;;24.78;37.84;98380.19;4970536;28;20563;-62
2021/01/13 03:01:38;;;;;;;1.20;0.60;;;;;;;24.81;37.78;98379.84;4972499;28;20796;-62
2021/01/13 03:04:04;;;;;;;1.77;0.70;;;;;;;24.76;37.80;98377.69;4971128;28;20233;-59
2021/01/13 03:06:35;;;;;;;1.50;0.50;;;;;;;24.83;36.84;98377.81;4971664;28;20670;-61
2021/01/13 03:09:04;;;;;;;1.15;0.57;;;;;;;24.82;37.51;98376.16;4970889;28;20380;-61
2021/01/13 03:11:30;;;;;;;1.90;0.70;;;;;;;24.86;36.59;98374.78;4971559;28;20318;-61
2021/01/13 03:14:05;;;;;;;1.80;0.50;;;;;;;24.89;37.05;98377.09;4970839;28;20202;-62
2021/01/13 03:16:35;;;;;;;1.60;0.60;;;;;;;24.89;37.03;98385.94;4971773;28;20611;-62
2021/01/13 03:19:05;;;;;;;1.08;0.65;;;;;;;24.86;37.47;98380.94;4971115;28;20321;-62
2021/01/13 03:21:40;;;;;;;2.55;0.52;;;;;;;24.78;37.60;98391.72;4971674;28;20289;-62
2021/01/13 03:24:13;;;;;;;1.38;0.60;;;;;;;24.80;37.35;98386.19;4971571;28;20197;-61
2021/01/13 03:26:45;;;;;;;1.08;0.57;;;;;;;24.81;37.38;98390.53;4971416;28;20206;-62
2021/01/13 03:29:17;;;;;;;0.90;0.43;;;;;;;24.69;36.73;98396.28;4971982;28;20226;-62
2021/01/13 03:31:56;;;;;;;2.35;0.82;;;;;;;24.73;37.30;98391.41;4972657;28;20384;-61
2021/01/13 03:34:29;;;;;;;0.93;0.50;;;;;;;24.69;37.59;98393.59;4972059;28;20214;-62
2021/01/13 03:37:06;;;;;;;2.28;0.50;;;;;;;24.66;36.93;98393.94;4970260;28;20297;-62
2021/01/13 03:39:35;;;;;;;2.83;0.70;;;;;;;24.61;37.78;98380.28;4970807;28;20221;-61
2021/01/13 03:42:10;;;;;;;1.13;0.60;;;;;;;24.67;37.86;98384.94;4971749;28;20220;-61
2021/01/13 03:44:38;;;;;;;0.98;0.60;;;;;;;24.60;37.89;98383.97;4971148;28;20212;-61
2021/01/13 03:47:47;;;;;;;0.93;0.40;;;;;;;24.60;37.47;98392.00;4970358;28;20264;-61
2021/01/13 03:50:25;;;;;;;0.45;0.45;;;;;;;24.59;36.91;98392.16;4971592;28;20249;-60
2021/01/13 03:52:58;;;;;;;1.17;0.47;;;;;;;24.51;38.10;98390.31;4970181;28;20216;-60
2021/01/13 03:55:26;;;;;;;2.47;0.50;;;;;;;24.59;37.84;98398.34;4971453;28;20202;-61
2021/01/13 03:58:32;;;;;;;2.05;0.43;;;;;;;24.58;36.73;98399.38;4969812;28;20619;-61
2021/01/13 04:01:05;;;;;;;0.43;0.28;;;;;;;24.59;36.83;98408.22;4971272;28;20205;-59
2021/01/13 04:03:34;;;;;;;1.58;0.50;;;;;;;24.61;37.71;98409.69;4971278;28;20198;-62
2021/01/13 04:06:09;;;;;;;0.85;0.40;;;;;;;24.69;37.64;98404.28;4972655;28;20267;-60
2021/01/13 04:08:40;;;;;;;1.98;0.60;;;;;;;24.63;37.53;98406.84;4970121;28;20221;-62
2021/01/13 04:11:09;;;;;;;0.57;0.50;;;;;;;24.63;36.97;98407.69;4969508;28;20237;-61
2021/01/13 04:13:41;;;;;;;0.93;0.40;;;;;;;24.60;36.91;98409.84;4970282;28;20331;-62
2021/01/13 04:16:09;;;;;;;1.23;0.50;;;;;;;24.58;38.01;98399.38;4970267;28;20619;-61
2021/01/13 04:18:36;;;;;;;0.73;0.30;;;;;;;24.62;37.95;98406.00;4971243;28;20279;-62
2021/01/13 04:21:03;;;;;;;0.55;0.30;;;;;;;24.58;37.05;98412.72;4970081;28;20205;-62
2021/01/13 04:23:31;;;;;;;2.05;0.40;;;;;;;24.53;37.35;98401.66;4968935;28;20626;-62
2021/01/13 04:25:59;;;;;;;0.38;0.32;;;;;;;24.43;37.13;98415.28;4969980;28;20272;-61
2021/01/13 04:28:26;;;;;;;1.80;0.50;;;;;;;24.50;37.47;98412.72;4969799;28;20206;-62
2021/01/13 04:30:54;;;;;;;1.15;0.57;;;;;;;24.48;37.89;98418.25;4951866;28;20226;-62
2021/01/13 04:33:20;;;;;;;1.20;0.45;;;;;;;24.49;37.38;98419.06;4951273;28;20199;-60
2021/01/13 04:35:47;;;;;;;0.63;0.45;;;;;;;24.50;37.03;98416.22;4949808;28;20211;-62
2021/01/13 04:38:20;;;;;;;1.00;0.47;;;;;;;24.52;36.95;98418.72;4950657;29;20233;-61
2021/01/13 04:40:50;;;;;;;1.42;0.40;;;;;;;24.58;37.39;98420.75;4951375;28;20207;-62
2021/01/13 04:43:22;;;;;;;0.52;0.40;;;;;;;24.59;36.90;98424.25;4949852;28;20211;-62
2021/01/13 04:45:49;;;;;;;1.00;0.50;;;;;;;24.58;37.93;98423.41;4951343;28;20632;-61
2021/01/13 04:48:17;;;;;;;3.10;0.40;;;;;;;24.60;37.88;98421.41;4950447;28;20569;-62
2021/01/13 04:50:45;;;;;;;1.00;0.38;;;;;;;24.63;37.63;98429.06;4954795;29;20322;-62
2021/01/13 04:53:12;;;;;;;1.50;0.40;;;;;;;24.76;37.33;98425.81;4955469;28;20212;-61
2021/01/13 04:55:51;;;;;;;0.90;0.38;;;;;;;24.88;36.48;98426.25;4953522;28;20285;-62
2021/01/13 04:59:01;;;;;;;0.43;0.30;;;;;;;24.88;37.20;98432.44;4954477;28;20242;-61
2021/01/13 05:02:07;;;;;;;3.70;0.30;;;;;;;24.97;36.96;98433.22;4955563;29;20297;-61
2021/01/13 05:04:56;;;;;;;1.17;0.40;;;;;;;25.08;37.00;98435.50;4902310;29;20250;-61
2021/01/13 05:07:30;;;;;;;0.50;0.38;;;;;;;25.08;37.01;98435.50;4955232;28;20701;-62
2021/01/13 05:10:00;;;;;;;0.30;0.20;;;;;;;25.10;36.68;98443.34;4953701;28;20231;-62
2021/01/13 05:12:44;;;;;;;0.57;0.40;;;;;;;25.16;36.02;98439.13;4952885;28;20244;-59
2021/01/13 05:15:14;;;;;;;0.68;0.40;;;;;;;25.26;35.92;98439.69;4954925;29;20214;-62
2021/01/13 05:17:58;;;;;;;0.90;0.40;;;;;;;25.27;35.83;98441.41;4954833;28;20215;-60
2021/01/13 05:20:26;;;;;;;1.10;0.70;;;;;;;25.27;36.76;98444.09;4955102;28;20242;-60
2021/01/13 05:22:54;;;;;;;0.50;0.40;;;;;;;25.34;36.67;98446.88;4953513;28;20703;-61
2021/01/13 05:25:40;;;;;;;1.17;0.40;;;;;;;25.39;36.10;98447.16;4966855;28;20202;-62
2021/01/13 05:28:10;;;;;;;0.82;0.47;;;;;;;25.38;36.67;98446.34;4974538;28;20216;-59
2021/01/13 05:30:38;;;;;;;1.65;0.32;;;;;;;25.36;35.74;98451.03;4972411;28;20237;-61
2021/01/13 05:33:07;;;;;;;1.30;0.45;;;;;;;25.39;35.97;98453.34;4972882;28;20212;-62
2021/01/13 05:35:37;;;;;;;0.90;0.50;;;;;;;25.41;36.04;98445.97;4972785;28;20209;-60
2021/01/13 05:38:12;;;;;;;1.20;0.50;;;;;;;25.49;35.43;98445.91;4972112;28;20198;-59
2021/01/13 05:40:50;;;;;;;1.75;0.38;;;;;;;25.46;35.82;98443.63;4973442;28;20552;-62
2021/01/13 05:43:19;;;;;;;0.77;0.35;;;;;;;25.40;35.66;98438.16;4974159;28;20214;-61
2021/01/13 05:45:46;;;;;;;1.45;0.47;;;;;;;25.43;36.06;98435.94;4972543;28;20209;-61
2021/01/13 05:48:14;;;;;;;2.40;0.50;;;;;;;25.46;35.72;98432.06;4972722;28;20233;-61
2021/01/13 05:50:41;;;;;;;1.05;0.50;;;;;;;25.48;35.88;98435.41;4971898;28;20226;-61
2021/01/13 05:53:07;;;;;;;0.70;0.32;;;;;;;25.42;36.44;98436.94;4971767;28;20217;-62
2021/01/13 05:55:34;;;;;;;0.85;0.50;;;;;;;25.47;36.04;98436.41;4972615;28;20232;-62
2021/01/13 05:58:02;;;;;;;0.82;0.50;;;;;;;25.48;35.72;98440.75;4972940;28;20279;-61
2021/01/13 06:00:31;;;;;;;1.45;0.40;;;;;;;25.47;36.12;98441.75;4971322;28;20700;-62
2021/01/13 06:02:59;;;;;;;1.08;0.50;;;;;;;25.52;36.45;98438.56;4973198;28;20210;-59
2021/01/13 06:05:27;;;;;;;0.75;0.55;;;;;;;25.43;35.47;98438.63;4973043;28;20328;-61
2021/01/13 06:07:55;;;;;;;1.13;0.60;;;;;;;25.55;35.55;98440.88;4972905;28;20512;-61
2021/01/13 06:10:25;;;;;;;1.67;0.50;;;;;;;25.46;35.42;98443.63;4973355;28;20232;-61
2021/01/13 06:12:56;;;;;;;0.95;0.40;;;;;;;25.49;35.48;98434.38;4972987;28;20210;-60
2021/01/13 06:15:24;;;;;;;1.90;0.60;;;;;;;25.54;35.58;98431.16;4972872;28;20589;-61
2021/01/13 06:17:53;;;;;;;0.43;0.40;;;;;;;25.54;34.90;98442.69;4972567;28;20214;-60
2021/01/13 06:20:20;;;;;;;0.93;0.57;;;;;;;25.58;35.21;98440.47;4970917;28;20234;-59
2021/01/13 06:22:48;;;;;;;1.95;0.60;;;;;;;25.67;36.16;98439.41;4971954;28;20287;-59
2021/01/13 06:25:22;;;;;;;4.47;0.90;;;;;;;25.73;36.08;98444.06;4971427;28;20218;-61
2021/01/13 06:28:28;;;;;;;7.72;0.70;;;;;;;25.70;36.01;98444.41;4973023;28;20304;-55
2021/01/13 06:31:03;;;;;;;14.43;1.80;;;;;;;25.70;36.65;98455.13;4969513;28;20240;-58
2021/01/13 06:33:50;;;;;;;14.10;1.83;;;;;;;25.68;36.85;98457.16;4971637;28;20212;-60
2021/01/13 06:36:42;;;;;;;11.73;1.70;;;;;;;25.63;36.25;98448.81;4973143;28;20194;-59
2021/01/13 06:39:10;;;;;;;12.43;1.77;;;;;;;25.49;37.53;98448.56;4971925;28;20313;-59
2021/01/13 06:41:45;;;;;;;21.00;2.67;;;;;;;25.48;36.98;98454.97;4972190;28;20337;-59
2021/01/13 06:44:11;;;;;;;14.38;2.10;;;;;;;25.55;37.12;98456.94;4971135;28;20205;-59
2021/01/13 06:46:37;;;;;;;17.85;1.92;;;;;;;25.61;36.22;98450.84;4970845;28;20305;-61
2021/01/13 06:49:16;;;;;;;13.70;1.58;;;;;;;25.45;36.78;98454.50;4970482;28;20368;-61
2021/01/13 06:51:43;;;;;;;13.15;1.77;;;;;;;25.61;36.87;98458.88;4972736;28;20229;-64
2021/01/13 06:54:14;;;;;;;9.85;1.25;;;;;;;25.53;36.59;98456.25;4971330;28;20352;-63
2021/01/13 06:56:48;;;;;;;7.82;1.73;;;;;;;25.63;35.50;98459.50;4971867;28;20209;-64
2021/01/13 06:59:16;;;;;;;11.07;1.25;;;;;;;25.80;36.73;98461.03;4971172;28;20677;-59
2021/01/13 07:01:53;;;;;;;11.02;1.65;;;;;;;25.91;35.80;98462.44;4972015;28;20202;-62
2021/01/13 07:04:20;;;;;;;15.98;1.55;;;;;;;26.13;36.24;98460.75;4972143;28;20247;-62
2021/01/13 07:07:00;;;;;;;17.98;1.95;;;;;;;25.93;36.10;98467.63;4970368;28;20202;-63
2021/01/13 07:09:36;;;;;;;16.42;2.15;;;;;;;25.80;37.17;98471.75;4971487;28;20272;-60
2021/01/13 07:12:11;;;;;;;9.20;1.95;;;;;;;25.62;37.02;98471.25;4972201;28;20321;-63
2021/01/13 07:14:39;;;;;;;14.32;1.75;;;;;;;25.78;37.32;98473.78;4972755;28;20218;-66
2021/01/13 07:17:08;;;;;;;13.75;2.00;;;;;;;25.80;37.46;98470.94;4973332;28;20213;-69
2021/01/13 07:19:37;;;;;;;21.02;1.83;;;;;;;25.76;37.31;98470.44;4974625;28;20294;-66
2021/01/13 07:22:05;;;;;;;14.95;2.00;;;;;;;25.82;36.92;98469.72;4973752;28;20249;-67
2021/01/13 07:24:31;;;;;;;10.20;1.63;;;;;;;25.90;36.94;98468.00;4975665;28;20194;-67
2021/01/13 07:26:58;;;;;;;5.43;1.55;;;;;;;25.98;35.84;98475.97;4974334;28;20209;-68
2021/01/13 07:29:26;;;;;;;11.65;1.67;;;;;;;26.02;35.64;98474.59;4971602;28;20233;-68
2021/01/13 07:31:55;;;;;;;5.22;1.17;;;;;;;25.88;35.62;98483.41;4970947;28;20324;-67
2021/01/13 07:34:29;;;;;;;3.65;1.20;;;;;;;25.82;35.60;98484.97;4971535;28;20253;-67
2021/01/13 07:37:00;;;;;;;7.63;1.20;;;;;;;25.79;35.38;98488.81;4971218;28;20340;-67
2021/01/13 07:39:46;;;;;;;6.35;1.27;;;;;;;25.75;36.08;98490.22;4972139;28;20226;-67
2021/01/13 07:42:29;;;;;;;4.82;1.20;;;;;;;25.81;35.86;98489.50;4969654;28;20289;-67
2021/01/13 07:45:04;;;;;;;5.88;1.23;;;;;;;25.65;36.39;98500.34;4972313;28;20596;-69
2021/01/13 07:48:14;;;;;;;5.65;1.23;;;;;;;25.74;36.28;98501.94;4971999;28;20229;-67
2021/01/13 07:50:42;;;;;;;11.75;1.35;;;;;;;25.92;35.91;98517.69;4972596;28;20296;-65
2021/01/13 07:53:11;;;;;;;7.20;1.27;;;;;;;25.95;34.41;98516.50;4974924;28;20241;-64
2021/01/13 07:55:43;;;;;;;6.75;1.27;;;;;;;26.11;34.97;98505.63;4973972;28;20355;-66
2021/01/13 07:58:19;;;;;;;5.50;1.25;;;;;;;26.20;34.51;98514.44;4971896;28;20613;-65
2021/01/13 08:00:59;;;;;;;10.05;1.20;;;;;;;26.31;34.50;98519.38;4972222;28;20223;-65
2021/01/13 08:04:00;;;;;;;7.75;1.52;;;;;;;26.21;34.65;98516.94;4971023;28;20244;-66
2021/01/13 08:06:29;;;;;;;4.10;1.17;;;;;;;26.25;34.93;98517.41;4972270;28;20206;-67
2021/01/13 08:09:16;;;;;;;5.43;1.08;;;;;;;26.22;35.36;98523.97;4951825;29;20706;-67
2021/01/13 08:12:39;;;;;;;5.47;1.00;;;;;;;26.42;34.64;98515.38;4950864;28;20306;-69
2021/01/13 08:15:38;;;;;;;5.10;0.80;;;;;;;26.58;34.62;98525.13;4961466;28;20538;-69
2021/01/13 08:18:49;;;;;;;3.03;0.90;;;;;;;26.56;35.37;98508.34;4971633;28;20210;-68
2021/01/13 08:21:44;;;;;;;5.50;1.13;;;;;;;26.33;35.23;98514.66;4945412;28;20202;-68
2021/01/13 08:24:29;;;;;;;4.72;1.00;;;;;;;26.36;35.55;98518.78;4974266;28;20197;-68
2021/01/13 08:26:59;;;;;;;3.58;0.85;;;;;;;26.55;34.77;98525.47;4975929;28;20268;-69
2021/01/13 08:29:34;;;;;;;4.15;1.33;;;;;;;26.46;34.89;98523.88;4974186;28;20245;-69
2021/01/13 08:32:06;;;;;;;6.68;1.40;;;;;;;26.42;34.83;98528.78;4955892;28;20230;-68
2021/01/13 08:34:44;;;;;;;5.63;1.17;;;;;;;26.53;34.65;98528.34;4954592;28;20289;-68
2021/01/13 08:37:12;;;;;;;3.40;0.75;;;;;;;26.37;35.06;98536.56;4953842;28;20582;-68
2021/01/13 08:39:42;;;;;;;4.88;0.95;;;;;;;26.28;35.71;98526.91;4970986;28;20304;-70
2021/01/13 08:42:25;;;;;;;3.70;1.00;;;;;;;26.19;35.37;98540.41;4976041;28;20650;-67
2021/01/13 08:44:54;;;;;;;3.15;0.70;;;;;;;26.26;35.56;98539.69;4974116;28;20229;-69
2021/01/13 08:47:21;;;;;;;3.03;0.82;;;;;;;26.14;35.26;98541.97;4973904;28;20290;-69
2021/01/13 08:49:49;;;;;;;13.93;1.30;;;;;;;26.06;35.37;98550.91;4974440;28;20225;-70
2021/01/13 08:52:18;;;;;;;4.97;0.82;;;;;;;26.20;35.42;98547.44;4974040;28;20228;-69
2021/01/13 08:55:14;;;;;;;3.53;1.00;;;;;;;26.17;35.72;98542.44;4973303;28;20206;-67
2021/01/13 08:57:55;;;;;;;3.17;1.05;;;;;;;26.12;36.11;98539.47;4974376;28;20218;-68
2021/01/13 09:00:24;;;;;;;3.42;0.80;;;;;;;26.09;35.62;98550.53;4974441;28;20233;-68
2021/01/13 09:03:07;;;;;;;3.92;1.05;;;;;;;26.01;36.20;98545.25;4973911;28;20313;-67
2021/01/13 09:05:36;;;;;;;7.88;0.90;;;;;;;25.97;36.35;98552.00;4973616;28;20202;-71
2021/01/13 09:08:04;;;;;;;4.43;1.42;;;;;;;25.96;35.46;98555.69;4973224;28;20256;-69
2021/01/13 09:10:55;;;;;;;23.08;1.88;;;;;;;26.15;35.92;98543.66;4974452;28;20321;-71
2021/01/13 09:13:32;;;;;;;3.75;1.10;;;;;;;26.08;35.33;98548.03;4965908;28;20238;-70
2021/01/13 09:16:32;;;;;;;10.23;1.02;;;;;;;26.03;35.58;98552.13;4974804;28;20264;-70
2021/01/13 09:19:01;;;;;;;4.85;1.08;;;;;;;25.98;36.02;98542.94;4954776;28;20231;-71
2021/01/13 09:21:32;;;;;;;4.78;0.95;;;;;;;25.99;35.73;98549.97;4955173;28;20202;-70
2021/01/13 09:24:00;;;;;;;5.25;1.45;;;;;;;25.91;36.15;98547.31;4954498;28;20203;-70
2021/01/13 09:26:33;;;;;;;7.03;0.73;;;;;;;25.87;35.73;98546.03;4953840;28;20238;-70
2021/01/13 09:29:02;;;;;;;7.57;1.30;;;;;;;25.90;36.46;98543.81;4955035;28;20223;-71
2021/01/13 09:31:29;;;;;;;2.88;0.90;;;;;;;25.95;35.87;98546.81;4954996;28;20608;-71
2021/01/13 09:33:57;;;;;;;4.63;0.95;;;;;;;25.97;36.53;98554.69;4997864;23;20237;-73
2021/01/13 09:36:24;;;;;;;5.90;0.90;;;;;;;25.95;36.26;98545.97;4992240;28;20205;-71
2021/01/13 09:39:10;;;;;;;5.55;1.10;;;;;;;26.03;36.28;98551.28;4992900;28;20689;-69
2021/01/13 09:41:39;;;;;;;3.13;0.98;;;;;;;26.21;35.49;98551.78;4994650;28;20565;-70
2021/01/13 09:44:13;;;;;;;2.17;0.95;;;;;;;26.29;35.45;98555.41;4994023;28;20209;-70
2021/01/13 09:46:41;;;;;;;4.45;0.80;;;;;;;26.24;36.13;98558.63;4994384;28;20205;-70
2021/01/13 09:49:09;;;;;;;2.33;0.80;;;;;;;26.20;35.96;98560.84;4993232;28;20217;-68
2021/01/13 09:51:38;;;;;;;3.00;0.90;;;;;;;26.26;35.35;98561.13;4993845;28;20233;-69
2021/01/13 09:54:07;;;;;;;6.85;0.75;;;;;;;26.29;35.52;98563.44;4995127;28;20205;-70
2021/01/13 09:56:36;;;;;;;4.13;1.00;;;;;;;26.35;35.56;98566.22;4997616;28;20209;-68
2021/01/13 09:59:05;;;;;;;6.15;1.30;;;;;;;26.51;35.79;98557.19;5001670;28;20585;-71
2021/01/13 10:01:33;;;;;;;4.43;1.20;;;;;;;26.50;34.91;98560.88;5007142;28;20206;-70
2021/01/13 10:04:01;;;;;;;14.10;1.55;;;;;;;26.49;35.90;98551.16;4997563;28;20214;-68
2021/01/13 10:06:30;;;;;;;3.95;0.95;;;;;;;26.63;34.73;98551.34;4994221;28;20215;-72
2021/01/13 10:08:57;;;;;;;16.00;1.50;;;;;;;26.61;35.71;98559.56;4993752;28;20225;-72
2021/01/13 10:11:26;;;;;;;4.05;0.80;;;;;;;26.60;35.21;98552.56;4992280;28;20456;-71
2021/01/13 10:13:59;;;;;;;3.13;1.10;;;;;;;26.59;34.92;98556.25;4994426;28;20206;-71
2021/01/13 10:16:27;;;;;;;2.30;0.70;;;;;;;26.63;34.92;98554.91;4993616;28;20197;-71
2021/01/13 10:18:56;;;;;;;2.85;1.00;;;;;;;26.62;35.04;98550.53;4973943;28;20316;-68
2021/01/13 10:21:23;;;;;;;3.97;0.93;;;;;;;26.72;35.42;98550.28;4979359;28;20202;-70
2021/01/13 10:23:52;;;;;;;2.50;0.90;;;;;;;26.72;34.66;98551.09;4989846;28;20209;-71
2021/01/13 10:26:18;;;;;;;1.95;1.00;;;;;;;26.62;35.33;98545.16;4989650;28;20280;-67
2021/01/13 10:28:46;;;;;;;2.38;0.75;;;;;;;26.67;34.82;98542.78;4984390;28;20293;-67
2021/01/13 10:31:24;;;;;;;2.30;0.90;;;;;;;26.67;35.29;98548.16;4990664;28;20241;-66
2021/01/13 10:33:53;;;;;;;1.98;0.70;;;;;;;26.80;35.01;98544.00;4991719;28;20221;-68
2021/01/13 10:36:40;;;;;;;2.13;0.75;;;;;;;26.86;35.24;98552.13;4991287;28;20518;-67
2021/01/13 10:39:16;;;;;;;2.35;0.93;;;;;;;26.88;34.58;98544.72;4980335;28;20228;-67
2021/01/13 10:41:45;;;;;;;2.63;0.80;;;;;;;26.86;34.50;98541.41;4972122;28;20252;-67
2021/01/13 10:44:14;;;;;;;4.88;0.95;;;;;;;27.01;34.32;98535.16;4972453;28;20206;-69
2021/01/13 10:46:45;;;;;;;5.55;0.80;;;;;;;27.03;34.55;98535.81;4974929;28;20217;-68
2021/01/13 10:49:20;;;;;;;4.38;1.10;;;;;;;26.95;35.09;98534.09;4991100;28;20229;-69
2021/01/13 10:51:48;;;;;;;7.18;1.02;;;;;;;26.87;36.73;98532.31;4981517;28;20248;-66
2021/01/13 10:54:18;;;;;;;12.02;1.75;;;;;;;27.01;34.55;98532.47;4971885;28;20772;-67
2021/01/13 10:56:45;;;;;;;6.68;1.27;;;;;;;26.75;28.11;98541.88;4971664;28;20210;-70
2021/01/13 10:59:15;;;;;;;7.07;1.48;;;;;;;26.86;30.60;98537.88;4972198;28;20240;-68
2021/01/13 11:01:45;;;;;;;7.43;1.27;;;;;;;26.71;31.60;98525.31;4972090;28;20210;-67
2021/01/13 11:04:27;;;;;;;7.15;1.02;;;;;;;26.79;32.67;98535.09;4974198;28;20312;-67
2021/01/13 11:06:59;;;;;;;7.07;1.30;;;;;;;26.65;33.17;98528.75;4991462;28;20201;-66
2021/01/13 11:09:26;;;;;;;5.97;0.93;;;;;;;26.48;33.48;98527.22;4997299;28;20537;-67
2021/01/13 11:11:55;;;;;;;2.58;1.00;;;;;;;26.64;33.33;98521.69;4995031;28;20235;-68
2021/01/13 11:14:41;;;;;;;9.10;1.30;;;;;;;26.43;33.77;98519.75;4992968;28;20201;-69
2021/01/13 11:17:10;;;;;;;3.17;1.40;;;;;;;26.28;34.48;98517.06;4990076;28;20201;-67
2021/01/13 11:19:38;;;;;;;3.50;1.27;;;;;;;26.38;34.51;98514.09;4991503;28;20221;-67
2021/01/13 11:22:06;;;;;;;11.20;2.03;;;;;;;26.43;34.71;98509.03;4992328;28;20206;-68
2021/01/13 11:24:34;;;;;;;3.60;1.10;;;;;;;26.41;34.13;98505.66;4992221;28;20307;-67
2021/01/13 11:27:03;;;;;;;30.33;3.47;;;;;;;26.43;34.41;98500.97;4990941;28;20394;-68
2021/01/13 11:29:31;;;;;;;19.42;1.92;;;;;;;26.48;33.15;98503.94;4991452;28;20256;-69
2021/01/13 11:31:59;;;;;;;8.85;1.33;;;;;;;26.50;34.13;98499.22;4991258;28;20228;-66
2021/01/13 11:34:27;;;;;;;5.72;1.00;;;;;;;26.63;34.39;98497.72;4991185;28;20277;-70
2021/01/13 11:37:22;;;;;;;10.00;1.23;;;;;;;26.59;33.75;98492.72;4991652;28;20241;-66
2021/01/13 11:40:04;;;;;;;6.57;1.50;;;;;;;26.62;32.94;98496.91;4966335;28;20232;-66
2021/01/13 11:42:57;;;;;;;8.13;1.25;;;;;;;26.70;33.95;98493.31;4992945;28;20245;-67
2021/01/13 11:45:29;;;;;;;4.82;1.40;;;;;;;26.74;33.88;98489.25;4994322;28;20240;-68
2021/01/13 11:48:03;;;;;;;12.60;1.35;;;;;;;26.72;34.47;98480.56;4991616;28;20251;-68
2021/01/13 11:50:30;;;;;;;3.53;0.93;;;;;;;26.82;34.22;98491.00;4991796;28;20225;-66
2021/01/13 11:53:02;;;;;;;20.92;1.40;;;;;;;26.88;34.90;98487.53;4990459;28;20225;-67
2021/01/13 11:55:30;;;;;;;6.72;1.10;;;;;;;26.69;34.83;98480.91;4992170;28;20223;-67
2021/01/13 11:57:57;;;;;;;19.80;1.70;;;;;;;26.69;34.84;98475.56;4991356;28;20260;-67
2021/01/13 12:00:28;;;;;;;4.88;0.93;;;;;;;26.65;35.43;98468.91;4995615;28;20235;-68